Gulf — V2BB5 — position and weather

sailwx.info

Track history (hours):
 
Tides and Currents Weather Stations Pressure Air Temp Water Temp Dewpoint Dewpoint Depression Visibility Wind Speed Wind Dir Waves Ship Positions

Gulf

Last reported at 2016-Apr-28 11:31 UTC. Time now 2016-May-02 06:01 UTC.
Position N 38°49' E 002°14'.

Length 96 m; draft 5.6 m.

Type: Cargo ship. MMSI: 304320000.

Date/timePositionNaut miles runAvg speedWind from/ knotsBaromVisibWave heightAir tempDewpointWater temp
2016-Apr-28 11:31N 38°49' E 002°14'9 8.3
2016-Apr-28 10:28N 38°54' E 002°05'8 8.1
2016-Apr-28 09:31N 38°58' E 001°57'8 8.1
2016-Apr-28 08:33N 39°03' E 001°48'10 8.0
2016-Apr-28 07:22N 39°08' E 001°38'28 0.7
2016-Apr-26 18:07N 39°24' E 001°09'6 9.4
2016-Apr-26 17:31N 39°21' E 001°15'10 9.4
2016-Apr-26 16:28N 39°16' E 001°25'11 9.7
2016-Apr-26 15:18N 39°09' E 001°38'7 9.6
2016-Apr-26 14:33N 39°05' E 001°45'9 9.4
2016-Apr-26 13:32N 38°60' E 001°55'9 9.6
2016-Apr-26 12:33N 38°54' E 002°05'10 9.7
2016-Apr-26 11:33N 38°49' E 002°16'11 9.4
2016-Apr-26 10:21N 38°43' E 002°28'810.0
2016-Apr-26 09:30N 38°38' E 002°37'  
2016-Apr-21 11:19N 38°53' E 002°08'8 8.1
2016-Apr-21 10:20N 38°57' E 001°59'7 8.0
2016-Apr-21 09:31N 39°01' E 001°52'10 7.7
2016-Apr-21 08:12N 39°07' E 001°41'5 7.5
2016-Apr-21 07:28N 39°10' E 001°35'  
Track history (hours):
 
Tides and Currents Weather Stations Pressure Air Temp Water Temp Dewpoint Dewpoint Depression Visibility Wind Speed Wind Dir Waves Ship Positions

Gulf

Last reported at 2016-Apr-28 11:31 UTC. Time now 2016-May-02 06:01 UTC.
Position N 38°49' E 002°14'.

Length 96 m; draft 5.6 m.

Type: Cargo ship. MMSI: 304320000.

Date/timePositionNaut miles runAvg speedWind from/ knotsBaromVisibWave heightAir tempDewpointWater temp
2016-Apr-28 11:31N 38°49' E 002°14'9 8.3
2016-Apr-28 10:28N 38°54' E 002°05'8 8.1
2016-Apr-28 09:31N 38°58' E 001°57'8 8.1
2016-Apr-28 08:33N 39°03' E 001°48'10 8.0
2016-Apr-28 07:22N 39°08' E 001°38'28 0.7
2016-Apr-26 18:07N 39°24' E 001°09'6 9.4
2016-Apr-26 17:31N 39°21' E 001°15'10 9.4
2016-Apr-26 16:28N 39°16' E 001°25'11 9.7
2016-Apr-26 15:18N 39°09' E 001°38'7 9.6
2016-Apr-26 14:33N 39°05' E 001°45'9 9.4
2016-Apr-26 13:32N 38°60' E 001°55'9 9.6
2016-Apr-26 12:33N 38°54' E 002°05'10 9.7
2016-Apr-26 11:33N 38°49' E 002°16'11 9.4
2016-Apr-26 10:21N 38°43' E 002°28'810.0
2016-Apr-26 09:30N 38°38' E 002°37'  
2016-Apr-21 11:19N 38°53' E 002°08'8 8.1
2016-Apr-21 10:20N 38°57' E 001°59'7 8.0
2016-Apr-21 09:31N 39°01' E 001°52'10 7.7
2016-Apr-21 08:12N 39°07' E 001°41'5 7.5
2016-Apr-21 07:28N 39°10' E 001°35'  

Dump ship's entire track history